Thursday, January 18, 2018, 8:55 PM EST
Back to Local

KMFV, Melfa / Accomack Airport

Location: Melfa, VA, United States Lat: 37.65
Local Time: 8:55 PM EST ( 1:55 GMT) Lon: -75.767
Time Zone: US/Eastern Elev: 49 ft

Show me the last for .
Show Decoded

2018-01-18 20:35 METAR KMFV 190135Z AUTO 26009G14KT 10SM CLR 01/M06 A3013 RMK AO2 T00121057 =
2018-01-18 20:15 METAR KMFV 190115Z AUTO 26007KT 10SM CLR 01/M06 A3013 RMK AO2 T00111058 =
2018-01-18 20:00 METAR KMFV 190100Z AUTO 25007KT 10SM CLR 01/M06 A3012 RMK AO2 T00141061 =
2018-01-18 19:35 METAR KMFV 190035Z AUTO 24008KT 10SM CLR 02/M07 A3012 RMK AO2 T00161066 =
2018-01-18 19:15 METAR KMFV 190015Z AUTO 25008KT 10SM CLR 01/M07 A3012 RMK AO2 T00101073 =
2018-01-18 18:55 METAR KMFV 182355Z AUTO 25006KT 10SM CLR 00/M08 A3011 RMK AO2 T00041080 10020
                 21004 =
2018-01-18 18:35 METAR KMFV 182335Z AUTO 24005KT 10SM CLR 00/M08 A3011 RMK AO2 T00031080 =
2018-01-18 18:15 METAR KMFV 182315Z AUTO 25006KT 10SM CLR 00/M08 A3010 RMK AO2 T00001076 =
2018-01-18 17:55 METAR KMFV 182255Z AUTO 24006KT 10SM CLR 00/M08 A3009 RMK AO2 T00001076 =
2018-01-18 17:35 METAR KMFV 182235Z AUTO 24006KT 10SM CLR 00/M08 A3009 RMK AO2 T00011076 =
2018-01-18 17:15 METAR KMFV 182215Z AUTO 24008KT 10SM CLR 01/M08 A3008 RMK AO2 T00051082 =
2018-01-18 16:55 METAR KMFV 182155Z AUTO 25006KT 10SM CLR 01/M08 A3007 RMK AO2 T00101085 =
2018-01-18 16:35 METAR KMFV 182135Z AUTO 25010KT 10SM CLR 02/M09 A3007 RMK AO2 T00151090 =
2018-01-18 16:15 METAR KMFV 182115Z AUTO 25010KT 10SM CLR 02/M10 A3007 RMK AO2 T00161099 =
2018-01-18 15:55 METAR KMFV 182055Z AUTO 27009G16KT 10SM CLR 02/M10 A3007 RMK AO2 T00161099 =
2018-01-18 15:35 METAR KMFV 182035Z AUTO 25010G16KT 10SM CLR 02/M10 A3007 RMK AO2 T00151098 =
2018-01-18 15:15 METAR KMFV 182015Z AUTO 26011KT 10SM CLR 02/M10 A3007 RMK AO2 T00201103 =
2018-01-18 14:55 METAR KMFV 181955Z AUTO 26012G16KT 10SM CLR 02/M10 A3008 RMK AO2 T00171096 =
2018-01-18 14:35 METAR KMFV 181935Z AUTO 28011G15KT 10SM CLR 02/M09 A3009 RMK AO2 T00151094 =
2018-01-18 14:15 METAR KMFV 181915Z AUTO 28011G16KT 10SM CLR 01/M10 A3009 RMK AO2 T00141097 =
2018-01-18 13:55 METAR KMFV 181855Z AUTO 30013G21KT 10SM CLR 01/M09 A3009 RMK AO2 T00121093 =
2018-01-18 13:35 METAR KMFV 181835Z AUTO 31014G27KT 10SM CLR 01/M09 A3009 RMK AO2 T00061095 =
2018-01-18 13:15 METAR KMFV 181815Z AUTO 30016G23KT 10SM CLR 00/M10 A3010 RMK AO2 T00001099 =
2018-01-18 12:55 METAR KMFV 181755Z AUTO 30015G20KT 10SM CLR 00/M09 A3012 RMK AO2 T10051091 11005
                 21052 =
2018-01-18 12:35 METAR KMFV 181735Z AUTO 31011G18KT 10SM CLR M01/M09 A3012 RMK AO2 T10101090 =
2018-01-18 12:15 METAR KMFV 181715Z AUTO 30015G22KT 10SM CLR M01/M09 A3013 RMK AO2 T10141093 =
2018-01-18 11:55 METAR KMFV 181655Z AUTO 32011G27KT 10SM CLR M01/M10 A3013 RMK AO2 T10131101 =
2018-01-18 11:35 METAR KMFV 181635Z AUTO 32015G23KT 10SM CLR M01/M10 A3014 RMK AO2 T10151097 =
2018-01-18 11:15 METAR KMFV 181615Z AUTO 32014G26KT 10SM CLR M02/M10 A3016 RMK AO2 T10181100 =
2018-01-18 10:55 METAR KMFV 181555Z AUTO 32018G26KT 10SM CLR M02/M10 A3017 RMK AO2 T10161099 =
2018-01-18 10:35 METAR KMFV 181535Z AUTO 33013G22KT 10SM CLR M02/M10 A3017 RMK AO2 T10191101 PNO
                 =
2018-01-18 10:15 METAR KMFV 181515Z AUTO 33015G24KT 10SM CLR M02/M10 A3018 RMK AO2 T10231104 =
2018-01-18 09:55 METAR KMFV 181455Z AUTO 32017G26KT 10SM CLR M03/M10 A3017 RMK AO2 T10261102 =
2018-01-18 09:35 METAR KMFV 181435Z AUTO 33015G25KT 10SM CLR M03/M10 A3017 RMK AO2 T10311101 =
2018-01-18 09:15 METAR KMFV 181415Z AUTO 31018G23KT 10SM CLR M03/M10 A3017 RMK AO2 T10351099 =
2018-01-18 08:55 METAR KMFV 181355Z AUTO 32015G20KT 10SM CLR M04/M10 A3017 RMK AO2 T10361097 =
2018-01-18 08:35 METAR KMFV 181335Z AUTO 32013G20KT 10SM CLR M04/M10 A3017 RMK AO2 T10401100 =
2018-01-18 08:15 METAR KMFV 181315Z AUTO 33013G25KT 10SM CLR M04/M10 A3017 RMK AO2 T10431104 =
2018-01-18 07:55 METAR KMFV 181255Z AUTO 33009G15KT 10SM CLR M05/M10 A3017 RMK AO2 T10501104 =
2018-01-18 07:35 METAR KMFV 181235Z AUTO 33009G19KT 300V360 10SM CLR M05/M11 A3018 RMK AO2
                 T10511111 =
2018-01-18 07:15 METAR KMFV 181215Z AUTO 33012G19KT 10SM CLR M05/M11 A3018 RMK AO2 T10511114 =
2018-01-18 06:55 METAR KMFV 181155Z AUTO 33014G20KT 10SM CLR M05/M11 A3016 RMK AO2 70003
                 T10521108 11038 21052 =
2018-01-18 06:35 METAR KMFV 181135Z AUTO 33012G24KT 10SM CLR M05/M10 A3014 RMK AO2 T10511105 =
2018-01-18 06:15 METAR KMFV 181115Z AUTO 33011G21KT 10SM CLR M05/M10 A3012 RMK AO2 T10511103 =
2018-01-18 05:55 METAR KMFV 181055Z AUTO 33012G22KT 10SM BKN085 M05/M10 A3010 RMK AO2 T10501105 =
2018-01-18 05:35 METAR KMFV 181035Z AUTO 33013G22KT 10SM OVC085 M05/M10 A3012 RMK AO2 T10481103 =
2018-01-18 05:15 METAR KMFV 181015Z AUTO 34013G24KT 300V010 10SM OVC075 M05/M10 A3013 RMK AO2
                 T10481101 =
2018-01-18 04:55 METAR KMFV 180955Z AUTO 33014G22KT 10SM OVC075 M05/M10 A3013 RMK AO2 T10471100 =
2018-01-18 04:35 METAR KMFV 180935Z AUTO 35012G22KT 10SM OVC075 M05/M10 A3013 RMK AO2 T10461102 =
2018-01-18 04:15 METAR KMFV 180915Z AUTO 34010G23KT 10SM OVC075 M04/M10 A3015 RMK AO2 T10451101 =
2018-01-18 03:55 METAR KMFV 180855Z AUTO 33013G21KT 10SM OVC075 M04/M10 A3014 RMK AO2 T10451101 =
2018-01-18 03:35 METAR KMFV 180835Z AUTO 34013G22KT 10SM SCT075 BKN110 M04/M10 A3013 RMK AO2
                 T10451100 =
2018-01-18 03:15 METAR KMFV 180815Z AUTO 34014G24KT 10SM BKN085 BKN110 M05/M10 A3008 RMK AO2
                 T10461100 =
2018-01-18 02:55 METAR KMFV 180755Z AUTO 34017G25KT 10SM SCT060 OVC085 M04/M10 A3011 RMK AO2
                 T10451100 =
2018-01-18 02:35 METAR KMFV 180735Z AUTO 34014G25KT 10SM OVC060 M04/M10 A3013 RMK AO2 T10421100 =
2018-01-18 02:15 METAR KMFV 180715Z AUTO 35014G25KT 10SM OVC060 M04/M10 A3012 RMK AO2 T10421100 =
2018-01-18 01:55 METAR KMFV 180655Z AUTO 33014G23KT 10SM OVC050 M04/M10 A3013 RMK AO2 T10401096 =
2018-01-18 01:35 METAR KMFV 180635Z AUTO 34011G22KT 310V020 10SM OVC050 M04/M10 A3013 RMK AO2
                 T10401101 =
2018-01-18 01:15 METAR KMFV 180615Z AUTO 35016G22KT 10SM BKN050 OVC070 M04/M10 A3013 RMK AO2
                 T10401105 =
2018-01-18 00:55 METAR KMFV 180555Z AUTO 35013G23KT 10SM SCT050 BKN070 BKN095 M04/M10 A3012 RMK
                 AO2 T10401102 11035 21045 =
2018-01-18 00:35 METAR KMFV 180535Z AUTO 34011G24KT 10SM SCT060 BKN070 OVC110 M03/M11 A3015 RMK
                 AO2 T10351106 =
2018-01-18 00:15 METAR KMFV 180515Z AUTO 35013G20KT 320V020 10SM OVC060 M03/M10 A3017 RMK AO2
                 T10351104 =
2018-01-17 23:55 METAR KMFV 180455Z AUTO 35012G21KT 10SM SCT045 SCT050 OVC060 M03/M10 A3018 RMK
                 AO2 T10351105 400081045 =
2018-01-17 23:35 METAR KMFV 180435Z AUTO 35012G22KT 10SM SCT043 SCT049 OVC060 M03/M10 A3019 RMK
                 AO2 T10351101 =
2018-01-17 23:15 METAR KMFV 180415Z AUTO 35010G19KT 10SM SCT049 OVC060 M03/M10 A3020 RMK AO2
                 T10351101 =
2018-01-17 22:55 METAR KMFV 180355Z AUTO 35014G20KT 10SM OVC049 M03/M10 A3021 RMK AO2 T10351102 =
2018-01-17 22:35 METAR KMFV 180335Z AUTO 35010G19KT 10SM OVC049 M03/M10 A3021 RMK AO2 T10351105 =
2018-01-17 22:15 METAR KMFV 180315Z AUTO 35011G21KT 10SM OVC046 M03/M10 A3022 RMK AO2 T10351105 =
2018-01-17 21:55 METAR KMFV 180255Z AUTO 34012G27KT 10SM -SN OVC040 M03/M11 A3022 RMK AO2
                 T10351108 =
2018-01-17 21:35 METAR KMFV 180235Z AUTO 34009G14KT 10SM -SN OVC045 M03/M09 A3023 RMK AO2
                 T10351095 =
2018-01-17 21:15 METAR KMFV 180215Z AUTO 34010G22KT 7SM -SN SCT031 BKN043 OVC048 M04/M09 A3023
                 RMK AO2 T10371089 =

Support USWX by starting your Amazon purchase here.